Groton, South Dakota
Current Conditions -  °F | °C
As of 1:53 AM on Monday 24 Nov 2014 (Local Time) from KABR Reporting Station
Overcast Overcast  
Wind Chill:   Ceiling: 2400
Heat Index: 19°   Visibility: 10mi
Dew Point: 10°   Wind: 23mph
Humidity: 68%   Direction: 330°NNW
Pressure: 29.64"   Gusts: 28mph
Location:  45.45°N, 98.1°W
Report Text: KABR 240753Z AUTO 33020G24KT 10SM OVC024 M07/M12 A2964 RMK AO2 SLP051 T10721122
Loading
Personal Weather Stations






























Interactive Weather Map New forecast layout! Learn more

10-Day Weather Forecast

Advertisements
Track Severe Weather on mobile